Time;durP1;ratioP1;P1;durP2;ratioP2;P2;SDS_P1;SDS_P2;PMS_P1;PMS_P2;Temp;Humidity;BMP_temperature;BMP_pressure;BME280_temperature;BME280_humidity;BME280_pressure;Samples;Min_cycle;Max_cycle;Signal;HPM_P1;HPM_P2
2022/07/11 00:02:01;;;;;;;4.10;1.10;;;15.70;99.90;;;;;;4992291;28;20041;-85
2022/07/11 00:04:28;;;;;;;6.35;1.77;;;15.70;99.90;;;;;;4989396;28;20046;-85
2022/07/11 00:06:53;;;;;;;4.95;1.77;;;15.70;99.90;;;;;;4990997;28;20049;-85
2022/07/11 00:09:19;;;;;;;4.00;1.33;;;15.70;99.90;;;;;;4973954;28;20034;-85
2022/07/11 00:11:44;;;;;;;5.50;2.30;;;15.70;99.90;;;;;;4974821;28;20180;-85
2022/07/11 00:14:10;;;;;;;3.20;2.03;;;15.70;99.90;;;;;;4990781;28;20485;-85
2022/07/11 00:16:35;;;;;;;3.30;1.27;;;15.70;99.90;;;;;;4988975;28;20085;-85
2022/07/11 00:19:01;;;;;;;8.90;2.03;;;15.70;99.90;;;;;;4972711;28;20511;-85
2022/07/11 00:21:27;;;;;;;6.13;2.22;;;15.70;99.90;;;;;;4976231;28;20193;-84
2022/07/11 00:23:52;;;;;;;3.75;1.33;;;15.70;99.90;;;;;;4992606;28;20052;-84
2022/07/11 00:26:18;;;;;;;4.80;1.95;;;15.70;99.90;;;;;;4992239;28;20451;-85
2022/07/11 00:28:43;;;;;;;3.00;1.20;;;15.70;99.90;;;;;;4992043;28;20040;-85
2022/07/11 00:31:10;;;;;;;7.40;1.50;;;15.70;99.90;;;;;;4977099;28;20044;-85
2022/07/11 00:33:35;;;;;;;3.33;1.20;;;15.70;99.90;;;;;;4989036;28;20042;-85
2022/07/11 00:36:01;;;;;;;4.05;0.80;;;15.70;99.90;;;;;;4987753;28;20041;-84
2022/07/11 00:38:26;;;;;;;3.92;1.23;;;15.70;99.90;;;;;;4986869;28;20651;-85
2022/07/11 00:40:52;;;;;;;3.00;1.02;;;15.70;99.90;;;;;;4989141;28;20030;-85
2022/07/11 00:43:19;;;;;;;3.08;0.95;;;15.70;99.90;;;;;;4973640;28;20061;-85
2022/07/11 00:45:47;;;;;;;2.78;1.02;;;15.60;99.90;;;;;;4989408;28;20053;-85
2022/07/11 00:48:13;;;;;;;1.67;0.80;;;15.70;99.90;;;;;;4989791;28;20113;-86
2022/07/11 00:50:39;;;;;;;2.80;1.10;;;15.70;99.90;;;;;;4992184;28;20040;-85
2022/07/11 00:53:04;;;;;;;5.32;1.10;;;15.70;99.90;;;;;;4991667;28;20040;-85
2022/07/11 00:55:30;;;;;;;6.82;1.40;;;15.60;99.90;;;;;;4991230;28;20053;-85
2022/07/11 00:57:56;;;;;;;4.75;1.52;;;15.70;99.90;;;;;;4976483;28;20057;-85
2022/07/11 01:00:22;;;;;;;4.00;1.17;;;15.70;99.90;;;;;;4990108;28;20038;-86
2022/07/11 01:02:47;;;;;;;4.20;1.33;;;15.70;99.90;;;;;;4989356;28;20038;-84
2022/07/11 01:05:13;;;;;;;3.92;1.13;;;15.60;99.90;;;;;;4972565;28;20037;-84
2022/07/11 01:07:38;;;;;;;3.25;1.02;;;15.60;99.90;;;;;;4991127;28;20405;-85
2022/07/11 01:10:05;;;;;;;2.15;1.20;;;15.60;99.90;;;;;;4989208;28;20058;-84
2022/07/11 01:12:31;;;;;;;3.88;1.45;;;15.70;99.90;;;;;;4985929;28;20443;-85
2022/07/11 01:15:00;;;;;;;1.90;0.85;;;15.70;99.90;;;;;;4990328;28;20030;-85
2022/07/11 01:17:25;;;;;;;2.25;0.90;;;15.60;99.90;;;;;;4992679;28;20041;-85
2022/07/11 01:19:51;;;;;;;1.45;0.75;;;15.60;99.90;;;;;;4975550;28;20507;-85
2022/07/11 01:22:23;;;;;;;2.65;0.93;;;15.60;99.90;;;;;;4990352;28;20042;-85
2022/07/11 01:24:49;;;;;;;5.95;1.70;;;15.60;99.90;;;;;;5008398;28;20048;-85
2022/07/11 01:27:15;;;;;;;2.42;0.88;;;15.50;99.90;;;;;;4993162;28;20396;-84
2022/07/11 01:29:41;;;;;;;3.10;0.93;;;15.50;99.90;;;;;;4992698;28;20065;-85
2022/07/11 01:32:07;;;;;;;1.98;0.45;;;15.50;99.90;;;;;;4977591;28;20138;-85
2022/07/11 01:34:34;;;;;;;2.22;0.50;;;15.40;99.90;;;;;;4989855;28;20052;-85
2022/07/11 01:37:00;;;;;;;2.30;0.70;;;15.40;99.90;;;;;;4990493;28;20140;-85
2022/07/11 01:39:29;;;;;;;3.95;1.13;;;15.40;99.90;;;;;;4988288;28;20037;-85
2022/07/11 01:41:57;;;;;;;3.13;0.68;;;15.40;99.90;;;;;;4991406;28;20044;-85
2022/07/11 01:44:23;;;;;;;1.42;0.50;;;15.40;99.90;;;;;;4990230;28;20030;-85
2022/07/11 01:46:49;;;;;;;4.13;0.70;;;15.40;99.90;;;;;;4992000;28;20477;-85
2022/07/11 01:49:15;;;;;;;2.67;0.35;;;15.40;99.90;;;;;;4976793;28;20130;-85
2022/07/11 01:51:41;;;;;;;2.85;0.73;;;15.40;99.90;;;;;;4993208;28;20273;-85
2022/07/11 01:54:07;;;;;;;4.20;0.50;;;15.40;99.90;;;;;;4976709;28;20496;-84
2022/07/11 01:56:33;;;;;;;5.30;1.67;;;15.40;99.90;;;;;;4991518;28;20050;-85
2022/07/11 01:58:59;;;;;;;5.13;0.88;;;15.40;99.90;;;;;;4977308;28;20034;-85
2022/07/11 02:01:25;;;;;;;3.60;1.00;;;15.40;99.90;;;;;;4993042;28;20467;-85
2022/07/11 02:03:50;;;;;;;2.67;0.80;;;15.40;99.90;;;;;;4987437;28;20045;-85
2022/07/11 02:06:16;;;;;;;3.33;1.85;;;15.40;99.90;;;;;;4989349;28;20052;-85
2022/07/11 02:08:42;;;;;;;5.15;0.88;;;15.30;99.90;;;;;;4973207;28;20065;-85
2022/07/11 02:11:07;;;;;;;3.78;0.63;;;15.30;99.90;;;;;;4973768;28;20359;-85
2022/07/11 02:13:33;;;;;;;1.80;0.88;;;15.30;99.90;;;;;;4973171;28;20051;-85
2022/07/11 02:15:59;;;;;;;2.53;0.70;;;15.30;99.90;;;;;;4990495;28;20553;-85
2022/07/11 02:18:24;;;;;;;1.25;0.68;;;15.30;99.90;;;;;;4994338;28;20033;-84
2022/07/11 02:20:50;;;;;;;2.00;0.60;;;15.30;99.90;;;;;;4991469;28;20480;-84
2022/07/11 02:23:17;;;;;;;2.53;0.50;;;15.30;99.90;;;;;;4993720;28;20670;-85
2022/07/11 02:25:43;;;;;;;2.70;0.45;;;15.30;99.90;;;;;;4992744;28;20029;-84
2022/07/11 02:28:10;;;;;;;3.97;0.95;;;15.30;99.90;;;;;;4992609;28;20522;-85
2022/07/11 02:30:42;;;;;;;3.58;1.02;;;15.30;99.90;;;;;;4975388;28;20194;-85
2022/07/11 02:33:11;;;;;;;1.83;0.70;;;15.30;99.90;;;;;;4990173;28;20038;-85
2022/07/11 02:35:37;;;;;;;3.22;1.35;;;15.30;99.90;;;;;;4990484;28;20485;-84
2022/07/11 02:38:02;;;;;;;5.47;0.93;;;15.30;99.90;;;;;;4993291;28;20280;-85
2022/07/11 02:40:28;;;;;;;1.80;0.40;;;15.30;99.90;;;;;;4971549;28;20042;-85
2022/07/11 02:42:54;;;;;;;2.70;0.90;;;15.30;99.90;;;;;;4989435;28;20041;-85
2022/07/11 02:45:19;;;;;;;3.78;2.08;;;15.30;99.90;;;;;;4990493;28;20049;-85
2022/07/11 02:47:45;;;;;;;3.45;0.98;;;15.30;99.90;;;;;;4994919;28;20044;-85
2022/07/11 02:50:13;;;;;;;2.45;0.60;;;15.30;99.90;;;;;;4977952;28;20041;-85
2022/07/11 02:52:41;;;;;;;3.55;1.33;;;15.30;99.90;;;;;;4977736;28;20492;-85
2022/07/11 02:55:09;;;;;;;4.00;0.73;;;15.30;99.90;;;;;;4974814;28;20034;-84
2022/07/11 02:57:35;;;;;;;2.90;1.05;;;15.30;99.90;;;;;;4992773;28;20121;-85
2022/07/11 03:00:02;;;;;;;2.25;1.10;;;15.30;99.90;;;;;;4993020;28;20256;-84
2022/07/11 03:02:28;;;;;;;4.97;1.63;;;15.30;99.90;;;;;;4991209;28;20046;-85
2022/07/11 03:04:54;;;;;;;2.80;0.90;;;15.30;99.90;;;;;;4983312;28;20049;-83
2022/07/11 03:07:19;;;;;;;4.70;1.02;;;15.30;99.90;;;;;;4997976;28;20044;-84
2022/07/11 03:09:45;;;;;;;2.25;1.20;;;15.30;99.90;;;;;;4998307;28;20103;-84
2022/07/11 03:12:10;;;;;;;3.03;1.30;;;15.30;99.90;;;;;;4995466;28;20038;-83
2022/07/11 03:14:36;;;;;;;4.32;1.73;;;15.30;99.90;;;;;;4996080;28;20037;-84
2022/07/11 03:17:01;;;;;;;6.85;1.63;;;15.30;99.90;;;;;;4984519;28;20041;-84
2022/07/11 03:19:27;;;;;;;7.50;1.38;;;15.30;99.90;;;;;;4988103;28;20062;-84
2022/07/11 03:21:53;;;;;;;2.28;0.80;;;15.30;99.90;;;;;;5002732;28;20034;-85
2022/07/11 03:24:18;;;;;;;2.83;1.92;;;15.30;99.90;;;;;;4984640;28;20038;-84
2022/07/11 03:26:44;;;;;;;2.80;1.13;;;15.20;99.90;;;;;;5017830;28;20096;-85
2022/07/11 03:29:09;;;;;;;4.63;1.42;;;15.20;99.90;;;;;;5015062;28;20046;-84
2022/07/11 03:31:35;;;;;;;3.47;1.50;;;15.20;99.90;;;;;;5001064;28;20060;-85
2022/07/11 03:34:00;;;;;;;4.60;1.40;;;15.20;99.90;;;;;;4998349;28;20115;-84
2022/07/11 03:36:26;;;;;;;4.93;1.73;;;15.20;99.90;;;;;;4984570;28;20084;-85
2022/07/11 03:38:52;;;;;;;2.72;1.58;;;15.20;99.90;;;;;;4997066;28;20033;-84
2022/07/11 03:41:17;;;;;;;6.30;1.48;;;15.20;99.90;;;;;;4996450;28;20045;-85
2022/07/11 03:43:43;;;;;;;3.72;2.00;;;15.20;99.90;;;;;;4992033;28;20032;-85
2022/07/11 03:46:09;;;;;;;3.22;1.63;;;15.20;99.90;;;;;;4978380;28;20121;-86
2022/07/11 03:48:34;;;;;;;3.28;1.38;;;15.30;99.90;;;;;;4991963;28;20096;-86
2022/07/11 03:51:00;;;;;;;4.32;1.05;;;15.20;99.90;;;;;;4991500;28;20030;-85
2022/07/11 03:53:26;;;;;;;2.45;0.90;;;15.20;99.90;;;;;;4978596;28;20030;-85
2022/07/11 03:55:51;;;;;;;2.70;1.08;;;15.20;99.90;;;;;;4994755;28;20044;-85
2022/07/11 03:58:17;;;;;;;2.08;0.88;;;15.20;99.90;;;;;;4995299;28;20033;-84
2022/07/11 04:00:42;;;;;;;4.07;1.30;;;15.20;99.90;;;;;;4994183;28;20072;-85
2022/07/11 04:03:08;;;;;;;3.90;1.15;;;15.30;99.90;;;;;;4978648;28;20072;-84
2022/07/11 04:05:33;;;;;;;2.42;0.98;;;15.20;99.90;;;;;;4977123;28;20050;-84
2022/07/11 04:07:59;;;;;;;2.47;1.40;;;15.30;99.90;;;;;;4996230;28;20080;-84
2022/07/11 04:10:24;;;;;;;3.40;1.45;;;15.30;99.90;;;;;;4994010;28;20496;-84
2022/07/11 04:12:50;;;;;;;3.95;1.10;;;15.30;99.90;;;;;;4991857;28;20060;-84
2022/07/11 04:15:16;;;;;;;5.10;1.50;;;15.30;99.90;;;;;;4991560;28;20571;-84
2022/07/11 04:17:41;;;;;;;2.97;1.10;;;15.30;99.90;;;;;;4990777;28;20416;-83
2022/07/11 04:20:07;;;;;;;3.30;1.45;;;15.30;99.90;;;;;;4994790;28;20033;-84
2022/07/11 04:22:33;;;;;;;4.85;1.75;;;15.30;99.90;;;;;;4993284;28;20041;-85
2022/07/11 04:24:59;;;;;;;4.78;1.50;;;15.30;99.90;;;;;;4975455;28;20046;-85
2022/07/11 04:27:25;;;;;;;2.75;1.02;;;15.30;99.90;;;;;;4992613;28;20099;-85
2022/07/11 04:29:51;;;;;;;6.53;0.80;;;15.30;99.90;;;;;;4992333;28;20046;-84
2022/07/11 04:32:16;;;;;;;4.68;1.08;;;15.40;99.90;;;;;;4993725;28;20041;-85
2022/07/11 04:34:42;;;;;;;1.52;0.75;;;15.30;99.90;;;;;;4992572;28;20496;-85
2022/07/11 04:37:08;;;;;;;2.30;1.00;;;15.30;99.90;;;;;;4976007;28;20041;-85
2022/07/11 04:39:33;;;;;;;2.63;1.17;;;15.40;99.90;;;;;;4993875;28;20042;-85
2022/07/11 04:42:00;;;;;;;3.40;1.27;;;15.40;99.90;;;;;;4992156;28;20244;-85
2022/07/11 04:44:27;;;;;;;4.30;0.80;;;15.40;99.90;;;;;;4991612;28;20042;-84
2022/07/11 04:46:52;;;;;;;2.90;0.70;;;15.50;99.90;;;;;;4991837;28;20101;-85
2022/07/11 04:49:18;;;;;;;4.18;1.70;;;15.50;99.90;;;;;;4991642;28;20118;-85
2022/07/11 04:51:44;;;;;;;2.20;0.85;;;15.60;99.90;;;;;;4993599;28;20034;-84
2022/07/11 04:54:10;;;;;;;3.38;0.80;;;15.60;99.90;;;;;;4991200;28;20046;-85
2022/07/11 04:56:36;;;;;;;3.28;0.63;;;15.70;99.90;;;;;;5000369;28;20049;-84
2022/07/11 04:59:03;;;;;;;3.53;0.85;;;15.70;99.90;;;;;;4998113;28;20386;-85
2022/07/11 05:01:29;;;;;;;1.70;0.63;;;15.80;99.90;;;;;;4995084;28;20077;-85
2022/07/11 05:03:55;;;;;;;2.00;0.73;;;15.90;99.90;;;;;;4996257;28;20373;-84
2022/07/11 05:06:20;;;;;;;3.10;0.70;;;15.90;99.90;;;;;;4976570;28;20168;-85
2022/07/11 05:08:46;;;;;;;2.30;0.68;;;15.90;99.90;;;;;;4979589;28;20073;-85
2022/07/11 05:11:11;;;;;;;3.75;0.90;;;15.90;99.90;;;;;;4991127;28;20034;-85
2022/07/11 05:13:37;;;;;;;1.23;0.50;;;16.00;99.90;;;;;;4996228;28;20038;-85
2022/07/11 05:16:03;;;;;;;4.20;0.80;;;16.00;99.90;;;;;;4993287;28;20129;-86
2022/07/11 05:18:29;;;;;;;4.93;0.88;;;16.10;99.90;;;;;;4962699;28;20652;-87
2022/07/11 05:20:55;;;;;;;1.65;0.40;;;16.10;99.90;;;;;;4976712;28;20045;-87
2022/07/11 05:23:21;;;;;;;2.78;0.52;;;16.10;99.90;;;;;;4976876;28;20042;-86
2022/07/11 05:25:46;;;;;;;1.45;0.40;;;16.20;99.90;;;;;;4976652;28;20556;-87
2022/07/11 05:28:12;;;;;;;2.53;0.50;;;16.20;99.90;;;;;;4976658;28;20129;-86
2022/07/11 05:30:37;;;;;;;2.80;0.50;;;16.20;99.90;;;;;;4961477;28;20030;-85
2022/07/11 05:33:03;;;;;;;1.73;0.32;;;16.20;99.90;;;;;;4976234;28;20038;-83
2022/07/11 05:35:28;;;;;;;3.70;0.50;;;16.10;99.90;;;;;;4961741;28;20050;-82
2022/07/11 05:37:54;;;;;;;0.98;0.52;;;16.10;99.90;;;;;;4983623;28;20087;-83
2022/07/11 05:40:20;;;;;;;2.78;0.30;;;16.10;99.90;;;;;;4979970;28;20079;-83
2022/07/11 05:42:45;;;;;;;1.10;0.38;;;16.00;99.90;;;;;;4996274;28;20053;-83
2022/07/11 05:45:11;;;;;;;1.38;0.30;;;16.00;99.90;;;;;;4996012;28;20052;-83
2022/07/11 05:47:37;;;;;;;0.82;0.10;;;16.00;99.90;;;;;;4995527;28;20036;-84
2022/07/11 05:50:03;;;;;;;1.02;0.10;;;16.00;99.90;;;;;;4994905;28;20046;-85
2022/07/11 05:52:29;;;;;;;1.60;0.20;;;16.00;99.90;;;;;;4994683;28;20092;-84
2022/07/11 05:54:54;;;;;;;0.82;0.10;;;16.00;99.90;;;;;;4996352;28;20038;-86
2022/07/11 05:57:20;;;;;;;3.03;0.10;;;16.00;99.90;;;;;;4980979;28;20044;-85
2022/07/11 05:59:46;;;;;;;1.67;0.22;;;16.20;99.90;;;;;;4998476;28;20088;-85
2022/07/11 06:02:12;;;;;;;1.20;0.10;;;16.30;99.90;;;;;;4999763;28;20448;-85
2022/07/11 06:04:37;;;;;;;1.55;0.57;;;16.50;99.90;;;;;;4981395;28;20076;-85
2022/07/11 06:07:03;;;;;;;0.93;0.10;;;16.50;99.90;;;;;;4983520;28;20082;-85
2022/07/11 06:09:29;;;;;;;1.60;0.20;;;16.50;99.90;;;;;;4983729;28;20033;-85
2022/07/11 06:11:55;;;;;;;0.75;0.10;;;16.70;99.90;;;;;;4994929;28;20066;-85
2022/07/11 06:14:22;;;;;;;0.38;0.10;;;16.70;99.90;;;;;;4978742;28;20144;-85
2022/07/11 06:16:48;;;;;;;0.50;0.00;;;16.90;99.90;;;;;;4995388;28;20176;-85
2022/07/11 06:19:14;;;;;;;2.13;0.43;;;17.10;99.90;;;;;;4994302;28;20056;-85
2022/07/11 06:21:40;;;;;;;1.05;0.10;;;17.20;99.90;;;;;;4979120;28;20466;-85
2022/07/11 06:24:06;;;;;;;2.78;0.20;;;17.30;99.90;;;;;;4979760;28;20038;-84
2022/07/11 06:26:31;;;;;;;1.95;0.10;;;17.40;99.90;;;;;;4995256;28;20034;-85
2022/07/11 06:28:57;;;;;;;0.68;0.10;;;17.60;99.90;;;;;;4995172;28;20046;-85
2022/07/11 06:31:23;;;;;;;3.65;0.10;;;17.60;99.90;;;;;;4979316;28;20092;-84
2022/07/11 06:33:54;;;;;;;1.10;0.10;;;17.60;99.90;;;;;;4962878;28;20062;-84
2022/07/11 06:36:22;;;;;;;2.00;0.20;;;17.60;99.90;;;;;;4995814;28;20096;-84
2022/07/11 06:38:49;;;;;;;1.30;0.10;;;17.40;99.90;;;;;;4993881;28;20129;-84
2022/07/11 06:41:17;;;;;;;1.08;0.20;;;17.30;99.90;;;;;;4995672;28;20037;-84
2022/07/11 06:43:43;;;;;;;1.40;0.10;;;17.20;99.90;;;;;;4980263;28;20042;-84
2022/07/11 06:46:09;;;;;;;1.30;0.10;;;17.20;99.90;;;;;;4979243;28;20064;-84
2022/07/11 06:48:35;;;;;;;0.88;0.08;;;17.20;99.90;;;;;;4978432;28;20125;-85
2022/07/11 06:51:01;;;;;;;0.88;0.10;;;17.20;99.90;;;;;;4978106;28;20116;-85
2022/07/11 06:53:26;;;;;;;0.75;0.20;;;17.20;99.90;;;;;;4992294;28;20069;-85
2022/07/11 06:55:52;;;;;;;0.40;0.10;;;17.20;99.90;;;;;;4994508;28;20125;-86
2022/07/11 06:58:33;;;;;;;1.13;0.10;;;17.20;99.90;;;;;;4977921;28;20117;-86
2022/07/11 07:01:00;;;;;;;0.50;0.10;;;17.30;99.90;;;;;;4978375;28;20077;-85
2022/07/11 07:03:27;;;;;;;0.30;0.10;;;17.30;99.90;;;;;;4978015;28;20046;-84
2022/07/11 07:05:55;;;;;;;0.57;0.10;;;17.30;99.90;;;;;;4994092;28;20305;-85
2022/07/11 07:08:28;;;;;;;1.23;0.03;;;17.40;99.90;;;;;;4978528;28;20038;-85
2022/07/11 07:10:55;;;;;;;0.10;0.00;;;17.50;99.90;;;;;;4994384;28;20065;-85
2022/07/11 07:13:25;;;;;;;1.30;0.00;;;17.90;99.90;;;;;;4994503;28;20534;-85
2022/07/11 07:15:51;;;;;;;1.45;0.00;;;18.60;99.90;;;;;;4975049;28;20070;-84
2022/07/11 07:18:16;;;;;;;0.20;0.00;;;19.00;99.90;;;;;;4975164;28;20042;-85
2022/07/11 07:20:42;;;;;;;1.40;0.13;;;19.00;99.90;;;;;;4958669;28;20049;-85
2022/07/11 07:23:08;;;;;;;0.30;0.00;;;19.20;99.90;;;;;;4974838;28;20042;-85
2022/07/11 07:25:34;;;;;;;3.58;0.10;;;19.40;99.90;;;;;;4974550;28;20129;-85
2022/07/11 07:27:59;;;;;;;0.40;0.00;;;19.60;99.90;;;;;;4975146;28;20072;-85
2022/07/11 07:30:25;;;;;;;0.10;0.00;;;19.70;99.90;;;;;;4974442;28;20442;-84
2022/07/11 07:32:51;;;;;;;0.43;0.10;;;19.70;99.90;;;;;;4974535;28;20034;-84
2022/07/11 07:35:16;;;;;;;0.10;0.00;;;19.70;99.90;;;;;;4987357;28;20416;-84
2022/07/11 07:37:42;;;;;;;0.25;0.00;;;19.60;99.90;;;;;;4975951;28;20078;-85
2022/07/11 07:40:08;;;;;;;1.40;0.00;;;19.50;99.90;;;;;;4975196;28;20128;-85
2022/07/11 07:42:34;;;;;;;0.25;0.00;;;19.40;99.90;;;;;;4958626;28;20100;-84
2022/07/11 07:44:59;;;;;;;0.75;0.00;;;19.30;99.90;;;;;;4974847;28;20042;-84
2022/07/11 07:47:25;;;;;;;1.10;0.00;;;19.20;99.90;;;;;;4974977;28;20042;-84
2022/07/11 07:49:51;;;;;;;1.27;0.00;;;19.20;99.90;;;;;;4975326;28;20034;-84
2022/07/11 07:52:17;;;;;;;0.10;0.00;;;19.20;99.90;;;;;;4974486;28;20042;-84
2022/07/11 07:54:42;;;;;;;0.20;0.00;;;19.10;99.90;;;;;;4975041;28;20057;-84
2022/07/11 07:57:08;;;;;;;1.20;0.00;;;19.00;99.90;;;;;;4976130;28;20034;-84
2022/07/11 07:59:33;;;;;;;1.45;0.05;;;18.90;99.90;;;;;;4976948;28;20042;-85
2022/07/11 08:01:59;;;;;;;0.35;0.05;;;18.70;99.90;;;;;;4959792;28;20042;-85
2022/07/11 08:04:24;;;;;;;0.10;0.00;;;18.60;99.90;;;;;;4978515;28;20046;-84
2022/07/11 08:06:50;;;;;;;0.82;0.00;;;18.50;99.90;;;;;;4981708;28;20042;-84
2022/07/11 08:09:16;;;;;;;0.20;0.00;;;18.40;99.90;;;;;;4984106;28;20104;-84
2022/07/11 08:11:41;;;;;;;0.10;0.00;;;18.40;99.90;;;;;;4982441;28;20073;-84
2022/07/11 08:14:07;;;;;;;0.20;0.00;;;18.50;99.90;;;;;;4997403;28;20060;-83
2022/07/11 08:16:34;;;;;;;0.50;0.30;;;18.50;99.90;;;;;;4997474;28;20041;-84
2022/07/11 08:19:01;;;;;;;0.30;0.00;;;18.50;99.90;;;;;;4981536;28;20408;-84
2022/07/11 08:21:28;;;;;;;2.35;0.00;;;18.50;99.90;;;;;;4997752;28;20049;-84
2022/07/11 08:23:54;;;;;;;0.30;0.00;;;18.40;99.90;;;;;;4997516;28;20030;-84
2022/07/11 08:26:20;;;;;;;0.10;0.00;;;18.40;99.90;;;;;;4998436;28;20240;-84
2022/07/11 08:28:46;;;;;;;1.75;0.00;;;18.40;99.90;;;;;;4995581;28;20069;-84
2022/07/11 08:31:11;;;;;;;0.25;0.00;;;18.40;99.90;;;;;;4978377;28;20113;-84
2022/07/11 08:33:37;;;;;;;0.40;0.10;;;18.40;99.90;;;;;;4977986;28;20034;-84
2022/07/11 08:36:03;;;;;;;0.52;0.10;;;18.40;99.90;;;;;;4978032;28;20049;-84
2022/07/11 08:38:29;;;;;;;0.17;0.00;;;18.40;99.90;;;;;;4978556;28;20493;-84
2022/07/11 08:40:54;;;;;;;0.15;0.00;;;18.40;99.90;;;;;;4979267;28;20058;-84
2022/07/11 08:43:28;;;;;;;0.40;0.00;;;18.40;99.90;;;;;;4977864;28;20042;-84
2022/07/11 08:45:55;;;;;;;1.08;0.20;;;18.50;99.90;;;;;;4962531;28;20108;-84
2022/07/11 08:48:22;;;;;;;2.05;0.00;;;18.50;99.90;;;;;;4978241;28;20050;-84
2022/07/11 08:50:49;;;;;;;0.35;0.10;;;18.70;99.90;;;;;;4994633;28;20048;-83
2022/07/11 08:53:15;;;;;;;0.35;0.00;;;18.80;99.90;;;;;;5001509;28;20131;-83
2022/07/11 08:55:41;;;;;;;0.10;0.00;;;18.80;99.90;;;;;;5003501;28;20049;-83
2022/07/11 08:58:08;;;;;;;0.17;0.00;;;18.80;99.90;;;;;;5002641;28;20052;-83
2022/07/11 09:00:35;;;;;;;1.10;0.15;;;18.70;99.90;;;;;;4987704;28;20038;-82
2022/07/11 09:03:02;;;;;;;0.30;0.10;;;18.80;99.90;;;;;;5003773;28;20108;-83
2022/07/11 09:05:28;;;;;;;0.73;0.00;;;18.90;99.90;;;;;;5001895;28;20050;-83
2022/07/11 09:07:54;;;;;;;0.20;0.00;;;19.10;99.90;;;;;;4986672;28;20117;-83
2022/07/11 09:10:20;;;;;;;2.50;0.10;;;19.40;99.90;;;;;;5003004;28;20108;-83
2022/07/11 09:13:17;;;;;;;0.30;0.00;;;19.50;99.90;;;;;;5001766;28;20217;-83
2022/07/11 09:15:45;;;;;;;0.22;0.10;;;19.70;99.90;;;;;;4976158;28;20050;-83
2022/07/11 09:18:32;;;;;;;1.40;0.15;;;19.80;99.90;;;;;;4981269;28;20058;-84
2022/07/11 09:26:30;;;;;;;0.00;0.00;;;20.00;99.90;;;;;;4990554;28;20056;-82
2022/07/11 09:29:04;;;;;;;1.08;0.00;;;19.90;99.90;;;;;;4990646;28;20071;-83
2022/07/11 09:31:31;;;;;;;0.20;0.00;;;19.70;99.90;;;;;;5006928;28;20065;-83
2022/07/11 09:34:02;;;;;;;0.30;0.00;;;19.40;99.90;;;;;;4993044;28;20064;-83
2022/07/11 09:36:40;;;;;;;0.13;0.00;;;19.20;99.90;;;;;;5009732;28;20046;-83
2022/07/11 09:39:08;;;;;;;0.05;0.00;;;19.10;99.90;;;;;;4997083;28;20038;-84
2022/07/11 09:41:35;;;;;;;1.20;0.10;;;19.20;99.90;;;;;;4997426;28;20045;-83
2022/07/11 09:44:18;;;;;;;0.35;0.00;;;19.30;99.90;;;;;;5000834;28;20073;-83
2022/07/11 09:46:48;;;;;;;0.98;0.00;;;19.50;99.90;;;;;;4979373;28;20035;-84
2022/07/11 09:49:15;;;;;;;0.10;0.00;;;19.60;99.90;;;;;;4960198;28;20104;-85
2022/07/11 09:51:41;;;;;;;0.32;0.00;;;19.70;99.90;;;;;;4977763;28;20070;-83
2022/07/11 09:54:08;;;;;;;0.63;0.00;;;19.90;99.90;;;;;;4989847;28;20034;-83
2022/07/11 09:56:38;;;;;;;0.50;0.00;;;19.90;99.90;;;;;;4971361;28;20067;-83
2022/07/11 09:59:04;;;;;;;1.17;0.00;;;19.80;99.90;;;;;;4989217;28;20049;-82
2022/07/11 10:01:31;;;;;;;1.88;0.00;;;19.70;99.90;;;;;;4989395;28;20123;-83
2022/07/11 10:03:58;;;;;;;2.05;0.32;;;19.60;99.90;;;;;;4988596;28;20042;-82
2022/07/11 10:06:23;;;;;;;2.22;0.20;;;19.40;99.90;;;;;;5001506;28;20212;-83
2022/07/11 10:08:51;;;;;;;0.60;0.00;;;19.30;99.90;;;;;;5007676;28;20476;-83
2022/07/11 10:11:16;;;;;;;0.82;0.00;;;19.50;99.90;;;;;;4991892;28;20042;-83
2022/07/11 10:13:43;;;;;;;0.40;0.00;;;19.60;99.90;;;;;;5009517;28;20036;-84
2022/07/11 10:16:35;;;;;;;0.35;0.00;;;19.60;99.90;;;;;;5009636;28;20041;-82
2022/07/11 10:19:25;;;;;;;0.20;0.00;;;19.80;99.90;;;;;;5008610;28;20046;-82
2022/07/11 10:22:06;;;;;;;0.10;0.00;;;19.90;99.90;;;;;;4992320;28;20053;-82
2022/07/11 10:25:09;;;;;;;0.22;0.00;;;19.90;99.90;;;;;;4991603;28;20052;-82
2022/07/11 10:28:13;;;;;;;0.80;0.00;;;19.90;99.90;;;;;;4987074;28;20046;-83
2022/07/11 10:30:46;;;;;;;1.88;0.00;;;20.10;99.90;;;;;;4985523;28;20042;-84
2022/07/11 10:33:13;;;;;;;1.35;0.00;;;20.30;99.90;;;;;;4979279;28;20069;-84
2022/07/11 10:35:47;;;;;;;1.58;0.00;;;20.40;99.90;;;;;;4982493;28;20046;-83
2022/07/11 10:38:13;;;;;;;0.63;0.00;;;20.50;99.90;;;;;;4980507;28;20065;-84
2022/07/11 10:40:46;;;;;;;0.63;0.00;;;20.60;99.90;;;;;;4980614;28;20046;-84
2022/07/11 10:43:14;;;;;;;1.48;0.00;;;20.60;99.90;;;;;;4980820;28;20050;-83
2022/07/11 10:45:50;;;;;;;0.17;0.00;;;20.60;99.90;;;;;;4987773;28;20049;-84
2022/07/11 10:48:17;;;;;;;0.10;0.00;;;20.50;99.90;;;;;;4999995;28;20041;-82
2022/07/11 10:50:44;;;;;;;1.20;0.03;;;20.60;99.90;;;;;;4999970;28;20132;-83
2022/07/11 10:53:11;;;;;;;1.00;0.00;;;20.60;99.90;;;;;;4983835;28;20042;-83
2022/07/11 10:55:46;;;;;;;2.03;0.08;;;20.60;99.90;;;;;;4999371;28;20133;-82
2022/07/11 10:58:19;;;;;;;;;;;20.60;99.90;;;;;;4999839;28;20073;-83
2022/07/11 11:00:45;;;;;;;2.67;0.10;;;20.60;99.90;;;;;;4998726;28;20450;-83
2022/07/11 11:03:11;;;;;;;0.17;0.00;;;20.60;99.90;;;;;;5003543;28;20080;-84
2022/07/11 11:05:43;;;;;;;0.05;0.00;;;20.70;99.90;;;;;;4988189;28;20073;-82
2022/07/11 11:11:00;;;;;;;0.20;0.00;;;21.00;99.90;;;;;;5002740;28;20042;-82
2022/07/11 11:13:26;;;;;;;0.30;0.10;;;21.10;99.90;;;;;;5000750;28;20042;-83
2022/07/11 11:15:54;;;;;;;0.85;0.00;;;21.20;99.90;;;;;;5005807;28;20053;-83
2022/07/11 11:18:23;;;;;;;0.75;0.00;;;21.20;99.90;;;;;;5005308;28;20102;-82
2022/07/11 11:21:00;;;;;;;1.77;0.00;;;20.80;99.90;;;;;;5005436;28;20042;-83
2022/07/11 11:23:44;;;;;;;0.00;0.00;;;20.70;99.90;;;;;;5003117;28;20105;-82
2022/07/11 11:26:20;;;;;;;0.13;0.00;;;20.70;99.90;;;;;;4985870;28;20073;-82
2022/07/11 11:28:56;;;;;;;0.22;0.10;;;20.80;99.90;;;;;;5001864;28;20042;-81
2022/07/11 11:31:22;;;;;;;0.30;0.00;;;21.00;99.90;;;;;;4999650;28;20057;-83
2022/07/11 11:33:48;;;;;;;0.80;0.00;;;21.00;99.90;;;;;;4996850;28;20042;-82
2022/07/11 11:36:17;;;;;;;0.40;0.00;;;21.00;99.90;;;;;;4993244;28;20093;-82
2022/07/11 11:38:44;;;;;;;0.20;0.00;;;21.00;99.90;;;;;;5003854;28;20042;-84
2022/07/11 11:41:10;;;;;;;0.95;0.00;;;21.10;99.90;;;;;;5002600;28;20053;-83
2022/07/11 11:43:37;;;;;;;0.10;0.00;;;21.30;99.90;;;;;;5003942;28;20034;-83
2022/07/11 11:46:02;;;;;;;0.70;0.10;;;21.50;99.90;;;;;;5003679;28;20042;-82
2022/07/11 11:48:29;;;;;;;0.30;0.00;;;21.50;99.90;;;;;;4999017;28;20449;-82
2022/07/11 11:51:05;;;;;;;0.70;0.00;;;21.50;99.90;;;;;;5001851;28;20034;-82
2022/07/11 11:53:44;;;;;;;0.38;0.00;;;21.50;99.90;;;;;;4998773;28;20125;-82
2022/07/11 11:56:17;;;;;;;0.80;0.22;;;21.40;99.90;;;;;;4998924;28;20030;-83
2022/07/11 11:58:43;;;;;;;0.05;0.00;;;21.30;99.90;;;;;;5003372;28;20488;-83
2022/07/11 12:01:13;;;;;;;1.20;0.00;;;21.00;99.90;;;;;;5007567;28;20044;-82
2022/07/11 12:03:58;;;;;;;0.90;0.00;;;21.00;99.90;;;;;;4987433;28;20069;-83
2022/07/11 12:06:28;;;;;;;2.67;1.55;;;21.20;99.90;;;;;;5000550;28;20042;-82
2022/07/11 12:09:04;;;;;;;187.80;139.55;;;21.40;99.90;;;;;;5001675;28;20053;-84
2022/07/11 12:11:31;;;;;;;36.08;26.83;;;21.40;99.90;;;;;;4991043;28;20042;-84
2022/07/11 12:14:07;;;;;;;162.60;135.32;;;21.30;99.90;;;;;;4992265;28;20038;-84
2022/07/11 12:16:43;;;;;;;189.95;146.00;;;21.20;99.90;;;;;;4989787;28;20467;-85
2022/07/11 12:19:22;;;;;;;1.70;0.65;;;21.30;99.90;;;;;;4989335;28;20054;-85
2022/07/11 12:21:50;;;;;;;1.05;0.22;;;21.40;99.90;;;;;;5005579;28;20029;-85
2022/07/11 12:24:20;;;;;;;0.77;0.10;;;21.40;99.90;;;;;;4992582;28;20396;-85
2022/07/11 12:26:47;;;;;;;0.98;0.03;;;21.20;99.90;;;;;;4990600;28;20401;-85
2022/07/11 12:29:19;;;;;;;1.00;0.03;;;21.10;99.90;;;;;;4996915;28;20508;-85
2022/07/11 12:32:10;;;;;;;1.45;0.10;;;21.30;99.90;;;;;;4995351;28;20459;-85
2022/07/11 12:34:36;;;;;;;0.80;0.10;;;21.30;99.90;;;;;;4978149;28;20054;-85
2022/07/11 12:37:07;;;;;;;0.85;0.10;;;21.30;99.90;;;;;;4978493;28;20181;-85
2022/07/11 12:39:38;;;;;;;0.38;0.10;;;21.20;99.90;;;;;;4978559;28;20525;-85
2022/07/11 12:42:26;;;;;;;1.80;0.57;;;20.90;99.90;;;;;;4978028;28;20049;-84
2022/07/11 12:45:11;;;;;;;0.40;0.10;;;20.80;99.90;;;;;;4977458;28;20042;-85
2022/07/11 12:47:48;;;;;;;0.95;0.10;;;20.90;99.90;;;;;;4977574;28;20496;-84
2022/07/11 12:50:15;;;;;;;0.90;0.10;;;21.20;99.90;;;;;;4977263;28;20396;-84
2022/07/11 12:52:47;;;;;;;1.25;0.10;;;21.40;99.90;;;;;;4977879;28;20105;-84
2022/07/11 12:55:22;;;;;;;0.10;0.10;;;21.40;99.90;;;;;;4977277;28;20125;-84
2022/07/11 12:58:07;;;;;;;0.68;0.50;;;21.50;99.90;;;;;;4977156;28;20042;-85